M I D A S
Marine Information and Data Acquisition System
Tripno 1738 of the Zeeleeuw from 2009-07-24 06:57:02 to 2009-07-24 14:23:39
Back to CruiseResearch ActivitiesStationsMapUnderway DataData graphs

EquipmentUnitsComment
TimeDGPSUTC
LatitudeDGPSDM.mWGS84
LongitudeDGPSDM.mWGS84
HeadingGyrodeg 
SOGDGPSknotsSpeed over ground
COGDGPSdegCourse over ground
DepthEcho soundermeters200 kHz
Missing or incorrect values are displayed as -999
Navigation data collected by the RV Zeeleeuw from 2009-07-24 06:43:54 to 2009-07-24 14:21:55
                                                                                    Next 1000 lines
Time Latitude Longitude Heading SOG COG Depth
2009-07-24 06:44:05 51°13.662 2°55.952 111.1 1.4 287 5.2
2009-07-24 06:44:09 51°13.663 2°55.949 111.2 1.8 294 5.1
2009-07-24 06:44:14 51°13.664 2°55.945 111.5 2.2 291 -999
2009-07-24 06:44:21 51°13.666 2°55.938 112 2.6 293 -999
2009-07-24 06:44:26 51°13.668 2°55.932 112.1 2.8 295 -999
2009-07-24 06:44:32 51°13.67 2°55.925 112.2 3 296 -999
2009-07-24 06:44:37 51°13.672 2°55.918 112.1 3.2 295 -999
2009-07-24 06:44:43 51°13.674 2°55.91 111.3 3.4 291 -999
2009-07-24 06:44:48 51°13.676 2°55.902 109.7 3.5 291 -999
2009-07-24 06:44:53 51°13.677 2°55.895 108.6 3.6 291 -999
2009-07-24 06:44:58 51°13.679 2°55.888 108.2 3.5 290 -999
2009-07-24 06:45:03 51°13.681 2°55.881 107.8 3.4 290 -999
2009-07-24 06:45:08 51°13.683 2°55.874 107.4 3.4 288 -999
2009-07-24 06:45:13 51°13.684 2°55.866 106.8 3.4 289 -999
2009-07-24 06:45:18 51°13.686 2°55.859 106.3 3.4 287 -999
2009-07-24 06:45:23 51°13.687 2°55.852 105.6 3.4 288 -999
2009-07-24 06:45:28 51°13.688 2°55.845 104.6 3.4 286 -999
2009-07-24 06:45:33 51°13.69 2°55.838 103.1 3.4 286 -999
2009-07-24 06:45:38 51°13.691 2°55.83 101.7 3.4 285 -999
2009-07-24 06:45:43 51°13.692 2°55.823 100.6 3.2 284 -999
2009-07-24 06:45:48 51°13.692 2°55.817 98.9 3.1 283 -999
2009-07-24 06:45:53 51°13.694 2°55.81 97.7 3 283 -999
2009-07-24 06:45:57 51°13.694 2°55.805 96.6 3 281 -999
2009-07-24 06:46:03 51°13.695 2°55.797 95.3 2.9 281 -999
2009-07-24 06:46:08 51°13.696 2°55.791 93.8 2.9 280 -999
2009-07-24 06:46:12 51°13.696 2°55.786 92.2 2.8 278 11.1
2009-07-24 06:46:17 51°13.697 2°55.78 90.8 2.8 278 -999
2009-07-24 06:46:23 51°13.697 2°55.773 89.3 2.7 277 12.2
2009-07-24 06:46:28 51°13.698 2°55.767 87.7 2.6 276 12.1
2009-07-24 06:46:32 51°13.698 2°55.763 86.1 2.5 275 -999
2009-07-24 06:46:37 51°13.698 2°55.758 84.9 2.4 275 -999
2009-07-24 06:46:43 51°13.698 2°55.753 83.5 2.3 275 12.2
2009-07-24 06:46:48 51°13.698 2°55.748 82.5 2.1 275 12.1
2009-07-24 06:46:52 51°13.699 2°55.745 81.4 1.8 275 12.3
2009-07-24 06:46:56 51°13.699 2°55.743 79.5 1.4 279 12.1
2009-07-24 06:47:01 51°13.699 2°55.74 77 1.1 281 11.9
2009-07-24 06:47:06 51°13.7 2°55.738 73.8 0.9 294 12
2009-07-24 06:47:12 51°13.7 2°55.736 70.2 0.6 305 11.9
2009-07-24 06:47:16 51°13.701 2°55.736 66.2 0.6 326 11.9
2009-07-24 06:47:20 51°13.701 2°55.735 61.8 0.5 341 11.7
2009-07-24 06:47:25 51°13.702 2°55.735 57.4 0.7 355 11.6
2009-07-24 06:47:31 51°13.704 2°55.735 52.8 0.8 8 11.3
2009-07-24 06:47:36 51°13.705 2°55.736 48.1 0.9 9 11.3
2009-07-24 06:47:40 51°13.706 2°55.736 43.4 1.1 15 11.6
2009-07-24 06:47:45 51°13.708 2°55.737 38.6 1.2 13 11.6
2009-07-24 06:47:51 51°13.71 2°55.737 33.7 1.3 13 11.4
2009-07-24 06:47:56 51°13.712 2°55.738 29 1.4 12 11.7
2009-07-24 06:48:00 51°13.714 2°55.738 24.2 1.7 6 11.5
2009-07-24 06:48:05 51°13.716 2°55.739 19.6 2.1 6 11.8
2009-07-24 06:48:10 51°13.72 2°55.739 13.9 2.6 358 11.8
2009-07-24 06:48:15 51°13.724 2°55.738 6.9 2.9 356 11.6
2009-07-24 06:48:20 51°13.728 2°55.737 359.3 3.3 348 11.5
2009-07-24 06:48:25 51°13.733 2°55.734 351.5 3.5 343 11.2
2009-07-24 06:48:29 51°13.737 2°55.731 343.8 3.8 339 10.6
2009-07-24 06:48:34 51°13.742 2°55.726 335.9 4 331 10.3
2009-07-24 06:48:39 51°13.747 2°55.722 330.4 4.5 330 10.4
2009-07-24 06:48:44 51°13.753 2°55.716 327.7 5.1 326 10.4
2009-07-24 06:48:49 51°13.76 2°55.709 326.6 5.4 327 10.3
2009-07-24 06:48:54 51°13.766 2°55.702 326.6 5.8 326 10.3
2009-07-24 06:48:59 51°13.774 2°55.695 326.6 6.4 327 10.4
2009-07-24 06:49:04 51°13.782 2°55.687 327.3 6.8 327 10.2
2009-07-24 06:49:09 51°13.79 2°55.678 328.3 7 328 10.3
2009-07-24 06:49:14 51°13.799 2°55.67 329.4 7.3 329 10.2
2009-07-24 06:49:18 51°13.806 2°55.663 329.9 7.6 329 10.3
2009-07-24 06:49:24 51°13.817 2°55.653 330.1 7.8 330 10.3
2009-07-24 06:49:29 51°13.827 2°55.644 330.4 8 330 10.2
2009-07-24 06:49:34 51°13.836 2°55.635 330.7 8.2 330 9.8
2009-07-24 06:49:39 51°13.847 2°55.626 331.1 8.3 331 10.1
2009-07-24 06:49:44 51°13.857 2°55.617 331.8 8.5 331 10
2009-07-24 06:49:49 51°13.867 2°55.608 333 8.5 333 10.1
2009-07-24 06:49:53 51°13.876 2°55.602 334 8.6 333 10.2
2009-07-24 06:49:59 51°13.889 2°55.591 334.5 8.7 334 10.2
2009-07-24 06:50:04 51°13.9 2°55.583 335.3 8.8 334 10.2
2009-07-24 06:50:09 51°13.911 2°55.574 335.4 8.9 334 10.2
2009-07-24 06:50:13 51°13.92 2°55.567 335.4 8.9 334 10.2
2009-07-24 06:50:19 51°13.933 2°55.557 335.9 8.9 335 10.2
2009-07-24 06:50:24 51°13.944 2°55.548 335.8 8.9 334 10.2
2009-07-24 06:50:29 51°13.956 2°55.54 335.4 9 334 10.1
2009-07-24 06:50:34 51°13.967 2°55.531 335.6 9 335 10.2
2009-07-24 06:50:39 51°13.978 2°55.523 335.8 9 335 10.2
2009-07-24 06:50:44 51°13.989 2°55.514 335.8 9 335 10.1
2009-07-24 06:50:49 51°14.001 2°55.506 336.3 9 336 10.1
2009-07-24 06:50:54 51°14.012 2°55.498 337.1 9 336 9.8
2009-07-24 06:50:59 51°14.024 2°55.49 337.3 9 335 10
2009-07-24 06:51:04 51°14.035 2°55.482 337.3 9 335 10
2009-07-24 06:51:09 51°14.046 2°55.473 336.9 9 335 10.1
2009-07-24 06:51:14 51°14.058 2°55.465 336.6 9 335 10.1
2009-07-24 06:51:18 51°14.067 2°55.458 336.6 9 335 10.1
2009-07-24 06:51:24 51°14.08 2°55.448 336.1 9.1 334 10.2
2009-07-24 06:51:29 51°14.092 2°55.439 335.1 9.1 333 10.2
2009-07-24 06:51:34 51°14.103 2°55.43 334.8 9 334 10.1
2009-07-24 06:51:39 51°14.114 2°55.421 335.4 9 334 10.2
2009-07-24 06:51:44 51°14.125 2°55.412 335.1 9 333 10.1
2009-07-24 06:51:49 51°14.136 2°55.403 333.7 9 332 10.1
2009-07-24 06:51:54 51°14.147 2°55.393 333 9 332 10.1
2009-07-24 06:51:59 51°14.158 2°55.383 333 9 331 10.1
2009-07-24 06:52:04 51°14.169 2°55.374 332.6 9 331 10
2009-07-24 06:52:09 51°14.18 2°55.364 332.2 9 329 10.1
2009-07-24 06:52:14 51°14.191 2°55.353 331.1 9.1 328 10
2009-07-24 06:52:19 51°14.201 2°55.342 329.6 9.1 326 10.1
2009-07-24 06:52:24 51°14.211 2°55.33 327.5 9.2 323 10.1
2009-07-24 06:52:29 51°14.222 2°55.317 324.9 9.2 321 10.1
2009-07-24 06:52:34 51°14.231 2°55.304 322.6 9.2 320 10.1
2009-07-24 06:52:39 51°14.241 2°55.291 321 9.2 318 10
2009-07-24 06:52:44 51°14.25 2°55.277 319.2 9.2 317 10
2009-07-24 06:52:49 51°14.259 2°55.263 317.7 9.2 315 10
2009-07-24 06:52:53 51°14.267 2°55.251 315.9 9.3 314 9.8
2009-07-24 06:52:59 51°14.277 2°55.233 314.6 9.4 312 10
2009-07-24 06:53:04 51°14.286 2°55.218 312.3 9.5 310 10
2009-07-24 06:53:09 51°14.295 2°55.202 311.2 9.6 310 10
2009-07-24 06:53:13 51°14.301 2°55.188 310.5 9.7 310 9.9
2009-07-24 06:53:19 51°14.312 2°55.169 311.1 9.7 311 10.1
2009-07-24 06:53:24 51°14.32 2°55.152 311.3 9.7 309 10
2009-07-24 06:53:29 51°14.329 2°55.135 310.7 9.8 309 10
2009-07-24 06:53:33 51°14.336 2°55.122 310.3 9.8 309 10.2
2009-07-24 06:53:39 51°14.346 2°55.101 310.2 9.9 310 9.8
2009-07-24 06:53:44 51°14.355 2°55.084 310.8 9.9 310 10.2
2009-07-24 06:53:49 51°14.364 2°55.068 311 9.9 311 10
2009-07-24 06:53:53 51°14.371 2°55.055 312.2 9.9 313 9.7
2009-07-24 06:53:59 51°14.383 2°55.036 313.9 10 315 9.3
2009-07-24 06:54:04 51°14.393 2°55.021 316.7 9.9 316 9.3
2009-07-24 06:54:10 51°14.405 2°55.003 318.3 9.9 317 9.1
2009-07-24 06:54:13 51°14.411 2°54.994 320.1 10 319 9.3
2009-07-24 06:54:19 51°14.424 2°54.977 321.6 10.1 321 9.3
2009-07-24 06:54:25 51°14.438 2°54.961 324.2 10.2 322 9.2
2009-07-24 06:54:30 51°14.449 2°54.947 325.2 10.3 322 9.4
2009-07-24 06:54:34 51°14.458 2°54.936 325.9 10.4 323 9.4
2009-07-24 06:54:39 51°14.47 2°54.921 326.3 10.6 322 9.3
2009-07-24 06:54:44 51°14.482 2°54.907 328.2 10.7 324 9.4
2009-07-24 06:54:50 51°14.496 2°54.89 329.7 10.8 324 9.3
2009-07-24 06:54:54 51°14.506 2°54.879 330.9 10.9 324 9.2
2009-07-24 06:54:59 51°14.518 2°54.865 331.3 10.9 325 9.3
2009-07-24 06:55:04 51°14.532 2°54.853 333.8 10.9 330 9
2009-07-24 06:55:09 51°14.545 2°54.842 337.8 10.9 332 8.9
2009-07-24 06:55:14 51°14.558 2°54.83 339.5 10.9 331 8.9
2009-07-24 06:55:19 51°14.571 2°54.818 338.6 11.1 330 8.8
2009-07-24 06:55:24 51°14.585 2°54.806 338.2 11.1 331 8.8
2009-07-24 06:55:29 51°14.598 2°54.794 337.9 11.2 329 8.7
2009-07-24 06:55:34 51°14.612 2°54.781 337.4 11.3 330 8.8
2009-07-24 06:55:39 51°14.625 2°54.769 337.7 11.3 331 8.7
2009-07-24 06:55:44 51°14.639 2°54.757 338.3 11.4 331 8.6
2009-07-24 06:55:49 51°14.653 2°54.744 338.8 11.4 331 8.6
2009-07-24 06:55:54 51°14.667 2°54.732 338.7 11.4 330 8.7
2009-07-24 06:55:59 51°14.681 2°54.719 338.2 11.5 330 8.6
2009-07-24 06:56:04 51°14.694 2°54.706 337.4 11.5 330 8.8
2009-07-24 06:56:10 51°14.711 2°54.691 337.2 11.5 329 8.7
2009-07-24 06:56:14 51°14.722 2°54.68 336.9 11.5 329 8.8
2009-07-24 06:56:19 51°14.736 2°54.668 336.9 11.5 330 8.6
2009-07-24 06:56:24 51°14.749 2°54.655 336.9 11.5 329 8.6
2009-07-24 06:56:30 51°14.766 2°54.639 336.9 11.5 330 8.6
2009-07-24 06:56:34 51°14.777 2°54.629 336.9 11.5 329 8.7
2009-07-24 06:56:39 51°14.791 2°54.616 336.6 11.5 329 8.8
2009-07-24 06:56:44 51°14.804 2°54.603 336.6 11.5 330 8.5
2009-07-24 06:56:49 51°14.818 2°54.59 336.9 11.5 330 8.6
2009-07-24 06:56:54 51°14.832 2°54.578 337.1 11.5 330 8.6
2009-07-24 06:56:59 51°14.846 2°54.565 337.1 11.5 330 8.7
2009-07-24 06:57:03 51°14.857 2°54.555 337.1 11.5 330 8.7
2009-07-24 06:57:09 51°14.874 2°54.54 337.1 11.5 330 8.9
2009-07-24 06:57:14 51°14.888 2°54.528 337.3 11.5 331 8.8
2009-07-24 06:57:19 51°14.902 2°54.516 338 11.5 332 8.9
2009-07-24 06:57:24 51°14.916 2°54.504 338.6 11.5 332 9.2
2009-07-24 06:57:29 51°14.93 2°54.491 338.3 11.5 332 9
2009-07-24 06:57:34 51°14.944 2°54.479 338 11.5 331 9
2009-07-24 06:57:39 51°14.958 2°54.467 337.6 11.5 331 9.3
2009-07-24 06:57:43 51°14.969 2°54.457 337.4 11.6 331 9.4
2009-07-24 06:57:49 51°14.986 2°54.443 337.2 11.6 332 9.3
2009-07-24 06:57:54 51°15 2°54.43 337.1 11.5 331 9.4
2009-07-24 06:57:59 51°15.014 2°54.418 336.9 11.5 331 9.3
2009-07-24 06:58:04 51°15.028 2°54.405 336.4 11.5 331 9.3
2009-07-24 06:58:09 51°15.042 2°54.394 336.8 11.5 332 9.4
2009-07-24 06:58:14 51°15.056 2°54.382 337.4 11.5 331 9.3
2009-07-24 06:58:19 51°15.07 2°54.37 337.4 11.5 332 9.3
2009-07-24 06:58:24 51°15.084 2°54.357 337.5 11.6 331 9.5
2009-07-24 06:58:30 51°15.101 2°54.342 336.8 11.5 331 9.3
2009-07-24 06:58:34 51°15.112 2°54.332 336.6 11.5 331 9.5
2009-07-24 06:58:39 51°15.126 2°54.319 336.1 11.5 329 9.5
2009-07-24 06:58:44 51°15.14 2°54.306 335.4 11.6 329 9.6
2009-07-24 06:58:50 51°15.156 2°54.291 335.2 11.6 329 9.6
2009-07-24 06:58:54 51°15.167 2°54.28 335.5 11.5 330 9.5
2009-07-24 06:58:59 51°15.181 2°54.268 336.1 11.5 330 9.5
2009-07-24 06:59:04 51°15.195 2°54.255 336.4 11.6 330 9.7
2009-07-24 06:59:09 51°15.209 2°54.243 336.6 11.5 331 9.6
2009-07-24 06:59:14 51°15.223 2°54.23 336.6 11.6 330 9.6
2009-07-24 06:59:19 51°15.237 2°54.218 336.1 11.5 330 9.5
2009-07-24 06:59:23 51°15.248 2°54.207 336 11.5 330 9.7
2009-07-24 06:59:29 51°15.265 2°54.192 336.1 11.5 330 9.7
2009-07-24 06:59:34 51°15.279 2°54.18 336.2 11.5 330 9.6
2009-07-24 06:59:39 51°15.292 2°54.167 335.9 11.5 330 9.6
2009-07-24 06:59:43 51°15.304 2°54.157 336 11.5 330 9.8
2009-07-24 06:59:49 51°15.32 2°54.141 335.9 11.6 330 9.4
2009-07-24 06:59:54 51°15.334 2°54.128 336 11.5 330 9.4
2009-07-24 06:59:59 51°15.348 2°54.115 335.8 11.6 329 8.9
2009-07-24 07:00:04 51°15.362 2°54.102 335.5 11.5 330 8.8
2009-07-24 07:00:09 51°15.376 2°54.09 335.9 11.6 331 9.1
2009-07-24 07:00:14 51°15.39 2°54.076 335.9 11.6 328 8.9
2009-07-24 07:00:19 51°15.403 2°54.063 335.5 11.6 330 9
2009-07-24 07:00:24 51°15.417 2°54.05 335.6 11.6 329 9.1
2009-07-24 07:00:29 51°15.431 2°54.037 335.6 11.6 330 9
2009-07-24 07:00:34 51°15.445 2°54.023 335.1 11.6 328 8.9
2009-07-24 07:00:39 51°15.459 2°54.01 334.8 11.7 329 9
2009-07-24 07:00:44 51°15.472 2°53.997 334.7 11.7 328 9
2009-07-24 07:00:50 51°15.489 2°53.98 334.8 11.7 328 9
2009-07-24 07:00:54 51°15.5 2°53.969 334.7 11.7 328 9.1
2009-07-24 07:00:59 51°15.513 2°53.955 334.4 11.7 328 9
2009-07-24 07:01:04 51°15.527 2°53.941 333.8 11.7 327 9.2
2009-07-24 07:01:09 51°15.541 2°53.927 333.3 11.7 327 9.3
2009-07-24 07:01:14 51°15.555 2°53.914 333.6 11.7 328 9.5
2009-07-24 07:01:19 51°15.568 2°53.9 334 11.8 327 9.3
2009-07-24 07:01:24 51°15.582 2°53.886 334.2 11.8 329 9.5
2009-07-24 07:01:29 51°15.596 2°53.873 334.7 11.7 329 9.3
2009-07-24 07:01:34 51°15.61 2°53.859 334.9 11.7 329 9.5
2009-07-24 07:01:39 51°15.624 2°53.846 335.2 11.7 329 9.7
2009-07-24 07:01:44 51°15.638 2°53.832 335 11.7 328 9.8
2009-07-24 07:01:49 51°15.652 2°53.819 334.7 11.7 329 9.6
2009-07-24 07:01:54 51°15.666 2°53.805 335.2 11.7 329 9.8
2009-07-24 07:01:59 51°15.679 2°53.792 335.4 11.8 328 9.8
2009-07-24 07:02:04 51°15.693 2°53.778 335.1 11.8 328 9.8
2009-07-24 07:02:09 51°15.707 2°53.764 334.4 11.7 328 10
2009-07-24 07:02:14 51°15.721 2°53.75 334.6 11.7 329 9.9
2009-07-24 07:02:19 51°15.735 2°53.736 335.2 11.7 328 10.1
2009-07-24 07:02:24 51°15.749 2°53.723 334.9 11.8 329 10.1
2009-07-24 07:02:29 51°15.762 2°53.709 334.8 11.8 328 10.1
2009-07-24 07:02:34 51°15.776 2°53.695 334.8 11.8 328 10.1
2009-07-24 07:02:39 51°15.79 2°53.681 335.1 11.8 328 10
2009-07-24 07:02:44 51°15.804 2°53.667 334.3 11.8 327 10.1
2009-07-24 07:02:49 51°15.817 2°53.652 334 11.8 327 10.3
2009-07-24 07:02:54 51°15.831 2°53.638 334 11.8 327 10.1
2009-07-24 07:02:59 51°15.845 2°53.624 333.8 11.8 327 10.2
2009-07-24 07:03:04 51°15.859 2°53.61 334.2 11.8 327 9.8
2009-07-24 07:03:09 51°15.872 2°53.595 334.3 11.8 327 10.2
2009-07-24 07:03:14 51°15.886 2°53.581 334.1 11.8 327 9.9
2009-07-24 07:03:19 51°15.9 2°53.567 334.2 11.8 327 10.2
2009-07-24 07:03:24 51°15.914 2°53.553 334.6 11.8 328 10.2
2009-07-24 07:03:29 51°15.927 2°53.539 334.6 11.9 327 10.4
2009-07-24 07:03:34 51°15.941 2°53.525 334.2 11.8 327 10.3
2009-07-24 07:03:39 51°15.955 2°53.511 334.2 11.8 327 10.4
2009-07-24 07:03:44 51°15.969 2°53.497 334.4 11.8 327 10.4
2009-07-24 07:03:49 51°15.983 2°53.483 334.7 11.8 328 10.3
2009-07-24 07:03:54 51°15.996 2°53.469 334.9 11.8 327 10.6
2009-07-24 07:03:59 51°16.01 2°53.455 334.7 11.8 328 10.7
2009-07-24 07:04:04 51°16.024 2°53.44 334.6 11.8 327 10.3
2009-07-24 07:04:09 51°16.038 2°53.426 334.5 11.8 327 10.5
2009-07-24 07:04:14 51°16.052 2°53.412 334.7 11.8 328 10.5
2009-07-24 07:04:19 51°16.066 2°53.399 334.9 11.8 328 10.6
2009-07-24 07:04:24 51°16.08 2°53.385 335.3 11.8 328 10.7
2009-07-24 07:04:29 51°16.094 2°53.371 335 11.8 328 10.5
2009-07-24 07:04:34 51°16.107 2°53.358 335.3 11.8 328 10.6
2009-07-24 07:04:39 51°16.121 2°53.344 335.3 11.8 328 10.8
2009-07-24 07:04:44 51°16.135 2°53.33 335.1 11.8 328 10.6
2009-07-24 07:04:49 51°16.149 2°53.316 335 11.9 328 10.7
2009-07-24 07:04:54 51°16.163 2°53.302 335 11.9 327 10.7
2009-07-24 07:04:59 51°16.177 2°53.288 334.7 11.8 327 10.7
2009-07-24 07:05:04 51°16.191 2°53.273 334.2 11.9 327 10.7
2009-07-24 07:05:09 51°16.204 2°53.259 334.1 11.9 328 10.8
2009-07-24 07:05:14 51°16.218 2°53.245 334.6 11.9 327 10.8
2009-07-24 07:05:19 51°16.232 2°53.231 334.6 11.9 327 10.8
2009-07-24 07:05:24 51°16.246 2°53.217 334.7 11.8 328 10.8
2009-07-24 07:05:29 51°16.26 2°53.203 334.7 11.9 327 10.8
2009-07-24 07:05:34 51°16.274 2°53.189 334.3 11.9 329 11
2009-07-24 07:05:39 51°16.288 2°53.175 334.7 11.8 328 10.7
2009-07-24 07:05:44 51°16.302 2°53.162 334.9 11.8 329 10.9
2009-07-24 07:05:49 51°16.315 2°53.147 334.8 11.8 328 10.7
2009-07-24 07:05:54 51°16.329 2°53.134 334.9 11.8 329 10.9
2009-07-24 07:05:59 51°16.343 2°53.12 335.2 11.8 328 10.9
2009-07-24 07:06:04 51°16.357 2°53.106 335.1 11.8 329 11
2009-07-24 07:06:09 51°16.371 2°53.093 335.4 11.8 329 10.8
2009-07-24 07:06:14 51°16.385 2°53.079 335.9 11.8 328 10.7
2009-07-24 07:06:19 51°16.399 2°53.066 335.2 11.8 328 10.8
2009-07-24 07:06:24 51°16.413 2°53.052 335.3 11.8 329 10.9
2009-07-24 07:06:29 51°16.427 2°53.038 335.3 11.8 328 10.6
2009-07-24 07:06:34 51°16.441 2°53.025 335.6 11.8 329 10.8
2009-07-24 07:06:39 51°16.455 2°53.011 335.6 11.9 328 10.9
2009-07-24 07:06:44 51°16.469 2°52.998 335.4 11.8 329 10.6
2009-07-24 07:06:49 51°16.483 2°52.984 335.5 11.8 329 10.6
2009-07-24 07:06:54 51°16.497 2°52.97 335.5 11.8 328 10.8
2009-07-24 07:06:59 51°16.511 2°52.957 335.4 11.8 329 10.7
2009-07-24 07:07:04 51°16.525 2°52.943 335.7 11.8 328 10.5
2009-07-24 07:07:09 51°16.539 2°52.93 335.2 11.8 329 10.6
2009-07-24 07:07:14 51°16.553 2°52.916 335.4 11.8 329 10.7
2009-07-24 07:07:19 51°16.566 2°52.902 334.9 11.8 327 10.6
2009-07-24 07:07:24 51°16.58 2°52.889 334.3 11.8 328 10.5
2009-07-24 07:07:29 51°16.594 2°52.874 333.9 11.8 327 10.4
2009-07-24 07:07:34 51°16.608 2°52.86 333.9 11.7 328 10.3
2009-07-24 07:07:39 51°16.622 2°52.846 334.2 11.7 328 10.3
2009-07-24 07:07:44 51°16.635 2°52.833 334.7 11.7 328 10.1
2009-07-24 07:07:49 51°16.649 2°52.819 334.2 11.7 328 10.2
2009-07-24 07:07:54 51°16.663 2°52.806 334.4 11.7 329 9.9
2009-07-24 07:07:59 51°16.677 2°52.793 335.5 11.7 329 9.8
2009-07-24 07:08:04 51°16.691 2°52.779 335.4 11.7 328 9.8
2009-07-24 07:08:09 51°16.705 2°52.766 335.3 11.7 329 9.6
2009-07-24 07:08:14 51°16.719 2°52.752 335.4 11.7 330 9.3
2009-07-24 07:08:19 51°16.733 2°52.739 335.6 11.6 330 9.1
2009-07-24 07:08:24 51°16.746 2°52.726 335.8 11.6 330 9
2009-07-24 07:08:29 51°16.761 2°52.714 336.2 11.6 331 8.6
2009-07-24 07:08:34 51°16.775 2°52.701 337.2 11.6 332 8.7
2009-07-24 07:08:39 51°16.789 2°52.689 337.3 11.6 331 8.6
2009-07-24 07:08:44 51°16.803 2°52.677 336.9 11.6 331 8.6
2009-07-24 07:08:49 51°16.817 2°52.665 336.8 11.6 332 8.6
2009-07-24 07:08:54 51°16.831 2°52.653 336.7 11.6 331 8.6
2009-07-24 07:08:59 51°16.845 2°52.64 336.1 11.6 331 8.4
2009-07-24 07:09:04 51°16.859 2°52.628 336.1 11.5 333 8.7
2009-07-24 07:09:09 51°16.873 2°52.617 337.1 11.5 332 8.5
2009-07-24 07:09:14 51°16.887 2°52.604 336.8 11.5 330 8.6
2009-07-24 07:09:19 51°16.901 2°52.592 336.5 11.5 333 8.7
2009-07-24 07:09:24 51°16.916 2°52.58 337.3 11.6 332 8.8
2009-07-24 07:09:29 51°16.93 2°52.569 337.5 11.6 333 9.1
2009-07-24 07:09:34 51°16.944 2°52.557 338.1 11.5 334 8.6
2009-07-24 07:09:39 51°16.958 2°52.546 338.7 11.5 334 8.8
2009-07-24 07:09:44 51°16.972 2°52.534 338.2 11.5 332 8.7
2009-07-24 07:09:49 51°16.987 2°52.523 338 11.5 333 8.6
2009-07-24 07:09:54 51°17.001 2°52.511 337.7 11.5 332 8.4
2009-07-24 07:09:59 51°17.015 2°52.499 337.2 11.5 333 8.5
2009-07-24 07:10:04 51°17.029 2°52.487 337.6 11.5 332 8.4
2009-07-24 07:10:09 51°17.043 2°52.475 337.3 11.5 332 8.4
2009-07-24 07:10:14 51°17.057 2°52.463 337.3 11.6 332 8.8
2009-07-24 07:10:19 51°17.071 2°52.451 337.1 11.5 331 8.6
2009-07-24 07:10:24 51°17.085 2°52.44 337.3 11.5 333 8.8
2009-07-24 07:10:29 51°17.099 2°52.427 337.8 11.6 331 8.8
2009-07-24 07:10:34 51°17.113 2°52.415 337 11.6 332 8.8
2009-07-24 07:10:39 51°17.128 2°52.403 337 11.6 331 8.9
2009-07-24 07:10:44 51°17.142 2°52.39 336.7 11.6 331 8.9
2009-07-24 07:10:49 51°17.156 2°52.378 336.1 11.6 330 8.9
2009-07-24 07:10:54 51°17.17 2°52.365 335.5 11.6 331 8.7
2009-07-24 07:10:59 51°17.184 2°52.353 335.9 11.6 331 9.1
2009-07-24 07:11:04 51°17.198 2°52.34 336.2 11.6 330 9.1
2009-07-24 07:11:09 51°17.212 2°52.328 335.8 11.6 332 9.1
2009-07-24 07:11:14 51°17.226 2°52.316 336.9 11.6 332 9.3
2009-07-24 07:11:19 51°17.241 2°52.304 337.3 11.6 332 9.1
2009-07-24 07:11:24 51°17.255 2°52.293 337.7 11.6 335 9.2
2009-07-24 07:11:29 51°17.27 2°52.283 339.3 11.5 335 9.2
2009-07-24 07:11:34 51°17.284 2°52.274 341.5 11.4 342 9.1
2009-07-24 07:11:39 51°17.299 2°52.266 344.8 11.4 342 9.6
2009-07-24 07:11:44 51°17.315 2°52.259 348.2 11.3 345 9.5
2009-07-24 07:11:49 51°17.33 2°52.253 349.9 11.3 346 10
2009-07-24 07:11:54 51°17.345 2°52.248 351.5 11.3 349 9.9
2009-07-24 07:11:59 51°17.361 2°52.244 353.8 11.3 351 9.9
2009-07-24 07:12:04 51°17.376 2°52.239 354.8 11.3 350 10.4
2009-07-24 07:12:09 51°17.391 2°52.236 356.2 11.2 354 10
2009-07-24 07:12:14 51°17.407 2°52.233 357.1 11.2 351 9.9
2009-07-24 07:12:19 51°17.422 2°52.23 357.9 11.3 353 10
2009-07-24 07:12:24 51°17.438 2°52.229 0.8 11.2 356 10
2009-07-24 07:12:29 51°17.453 2°52.226 0.3 11.3 354 10.4
2009-07-24 07:12:34 51°17.469 2°52.224 0.7 11.1 358 9.7
2009-07-24 07:12:39 51°17.484 2°52.224 2.5 11.2 358 9.9
2009-07-24 07:12:44 51°17.5 2°52.222 2.6 11.2 357 10.2
2009-07-24 07:12:49 51°17.516 2°52.221 3 11.2 358 10
2009-07-24 07:12:54 51°17.531 2°52.221 3.7 11.2 358 9.9
2009-07-24 07:12:59 51°17.547 2°52.22 3.6 11.2 358 9.9
2009-07-24 07:13:04 51°17.562 2°52.219 3.3 11.2 358 10.1
2009-07-24 07:13:09 51°17.578 2°52.218 3.8 11.2 359 10.1
2009-07-24 07:13:14 51°17.593 2°52.218 4.3 11.3 359 10.5
2009-07-24 07:13:19 51°17.609 2°52.217 4.5 11.3 359 10.2
2009-07-24 07:13:24 51°17.625 2°52.217 4.9 11.2 -999 10.1
2009-07-24 07:13:29 51°17.64 2°52.217 4.6 11.2 359 10.3
2009-07-24 07:13:34 51°17.656 2°52.217 5.6 11.1 -999 9.9
2009-07-24 07:13:39 51°17.671 2°52.216 4.5 11.2 359 10.3
2009-07-24 07:13:44 51°17.687 2°52.215 4.4 11.2 357 10
2009-07-24 07:13:49 51°17.702 2°52.216 4.1 11.1 2 10
2009-07-24 07:13:54 51°17.718 2°52.214 3.7 11.1 355 10
2009-07-24 07:13:59 51°17.733 2°52.214 3.4 11.1 1 10.3
2009-07-24 07:14:04 51°17.748 2°52.213 3.4 11.3 356 10.4
2009-07-24 07:14:09 51°17.764 2°52.212 3.7 11.2 359 10.1
2009-07-24 07:14:14 51°17.779 2°52.211 3.7 11.2 357 9.8
2009-07-24 07:14:19 51°17.795 2°52.21 3.2 11.2 357 9.9
2009-07-24 07:14:24 51°17.81 2°52.209 3.5 11.1 357 9.9
2009-07-24 07:14:29 51°17.826 2°52.207 2.3 11.2 355 10
2009-07-24 07:14:34 51°17.841 2°52.205 2.2 11.2 355 9.8
2009-07-24 07:14:39 51°17.857 2°52.203 1.1 11.2 354 9.7
2009-07-24 07:14:44 51°17.872 2°52.2 359.7 11.2 354 9.6
2009-07-24 07:14:49 51°17.887 2°52.197 359.6 11.2 352 9.8
2009-07-24 07:14:54 51°17.903 2°52.193 358.2 11.3 354 9.8
2009-07-24 07:14:59 51°17.919 2°52.19 358.6 11.3 352 9.6
2009-07-24 07:15:04 51°17.934 2°52.187 357.1 11.3 353 10.3
2009-07-24 07:15:09 51°17.949 2°52.182 357.3 11.3 349 10
2009-07-24 07:15:14 51°17.965 2°52.178 356.4 11.3 350 10.1
2009-07-24 07:15:19 51°17.98 2°52.174 355.9 11.3 350 10
2009-07-24 07:15:24 51°17.996 2°52.169 356.2 11.3 350 9.8
2009-07-24 07:15:29 51°18.011 2°52.166 356.2 11.3 352 10.4
2009-07-24 07:15:34 51°18.027 2°52.162 356.5 11.3 350 9.9
2009-07-24 07:15:39 51°18.042 2°52.158 356.5 11.2 351 10.1
2009-07-24 07:15:44 51°18.057 2°52.154 356.5 11.3 350 9.8
2009-07-24 07:15:49 51°18.073 2°52.15 356.8 11.3 352 9.9
2009-07-24 07:15:54 51°18.089 2°52.147 357.9 11.3 352 9.5
2009-07-24 07:15:59 51°18.104 2°52.143 358.6 11.4 352 9.9
2009-07-24 07:16:04 51°18.12 2°52.14 358.6 11.3 353 10
2009-07-24 07:16:09 51°18.135 2°52.137 358.5 11.3 352 9.7
2009-07-24 07:16:14 51°18.151 2°52.133 358 11.3 352 9.6
2009-07-24 07:16:19 51°18.166 2°52.129 357.2 11.4 351 10.2
2009-07-24 07:16:24 51°18.182 2°52.125 357.7 11.3 351 9.8
2009-07-24 07:16:29 51°18.197 2°52.123 358.2 11.4 353 9.6
2009-07-24 07:16:34 51°18.213 2°52.119 358.6 11.4 352 9.8
2009-07-24 07:16:39 51°18.229 2°52.116 358.6 11.4 353 10.3
2009-07-24 07:16:44 51°18.244 2°52.113 359.1 11.4 353 10
2009-07-24 07:16:49 51°18.26 2°52.11 359.6 11.4 354 9.9
2009-07-24 07:16:54 51°18.276 2°52.107 359 11.3 353 9.9
2009-07-24 07:16:59 51°18.291 2°52.105 359.4 11.3 355 10.3
2009-07-24 07:17:04 51°18.307 2°52.101 359.2 11.4 352 10.4
2009-07-24 07:17:09 51°18.322 2°52.098 358.6 11.3 352 10.2
2009-07-24 07:17:14 51°18.338 2°52.094 358 11.3 351 10.1
2009-07-24 07:17:19 51°18.353 2°52.09 357.9 11.3 352 10.5
2009-07-24 07:17:24 51°18.369 2°52.088 358.9 11.3 354 10.6
2009-07-24 07:17:29 51°18.385 2°52.084 359 11.4 351 10.5
2009-07-24 07:17:34 51°18.4 2°52.08 358.3 11.3 353 9.9
2009-07-24 07:17:39 51°18.416 2°52.077 357.9 11.3 352 10.4
2009-07-24 07:17:44 51°18.431 2°52.074 358.5 11.3 353 10.4
2009-07-24 07:17:49 51°18.447 2°52.07 358.6 11.3 351 10.5
2009-07-24 07:17:54 51°18.463 2°52.067 358.2 11.3 352 10.3
2009-07-24 07:17:59 51°18.478 2°52.063 358.3 11.4 351 10.5
2009-07-24 07:18:04 51°18.494 2°52.059 358.6 11.4 352 10.6
2009-07-24 07:18:09 51°18.51 2°52.055 358.6 11.4 351 10.7
2009-07-24 07:18:14 51°18.525 2°52.051 358.2 11.5 351 10.7
2009-07-24 07:18:19 51°18.541 2°52.048 357.9 11.4 352 10.7
2009-07-24 07:18:24 51°18.557 2°52.044 358 11.5 352 10.9
2009-07-24 07:18:29 51°18.572 2°52.041 358.3 11.4 352 10.9
2009-07-24 07:18:34 51°18.588 2°52.038 358.5 11.3 353 11.2
2009-07-24 07:18:39 51°18.603 2°52.033 358.6 11.4 351 11.1
2009-07-24 07:18:44 51°18.619 2°52.03 358.8 11.4 352 11.2
2009-07-24 07:18:49 51°18.635 2°52.026 358.5 11.4 350 11.1
2009-07-24 07:18:54 51°18.65 2°52.023 357.7 11.4 353 11.4
2009-07-24 07:18:59 51°18.666 2°52.018 357.9 11.4 350 11.5
2009-07-24 07:19:04 51°18.681 2°52.014 357.2 11.3 352 11.4
2009-07-24 07:19:09 51°18.697 2°52.01 357.9 11.4 350 11.4
2009-07-24 07:19:14 51°18.713 2°52.006 357.7 11.4 351 11.9
2009-07-24 07:19:19 51°18.728 2°52.002 357.3 11.4 351 11.5
2009-07-24 07:19:24 51°18.744 2°51.998 357.7 11.4 351 11.7
2009-07-24 07:19:29 51°18.759 2°51.995 357.9 11.4 351 11.8
2009-07-24 07:19:34 51°18.775 2°51.991 358 11.4 352 11.9
2009-07-24 07:19:39 51°18.791 2°51.987 358.3 11.4 352 11.8
2009-07-24 07:19:44 51°18.806 2°51.984 358.9 11.4 352 12
2009-07-24 07:19:49 51°18.822 2°51.981 359.4 11.4 353 12.4
2009-07-24 07:19:54 51°18.837 2°51.978 359.9 11.4 354 12.2
2009-07-24 07:19:59 51°18.853 2°51.975 -999 11.4 352 12.3
2009-07-24 07:20:04 51°18.869 2°51.972 359.4 11.4 354 12.2
2009-07-24 07:20:09 51°18.884 2°51.969 359.9 11.4 353 12.5
2009-07-24 07:20:14 51°18.9 2°51.965 359.3 11.4 353 12.5
2009-07-24 07:20:19 51°18.915 2°51.963 359.4 11.4 353 12.7
2009-07-24 07:20:24 51°18.931 2°51.959 359.3 11.3 353 12.1
2009-07-24 07:20:29 51°18.946 2°51.956 358.7 11.2 354 13
2009-07-24 07:20:34 51°18.962 2°51.954 0.1 11.2 355 12.7
2009-07-24 07:20:39 51°18.977 2°51.951 0.2 11.2 353 12.9
2009-07-24 07:20:44 51°18.993 2°51.948 0.3 11.3 355 13.2
2009-07-24 07:20:49 51°19.008 2°51.945 0.7 11.3 354 12.9
2009-07-24 07:20:54 51°19.024 2°51.944 1.2 11.3 355 13.1
2009-07-24 07:20:59 51°19.04 2°51.94 0.8 11.4 353 13.7
2009-07-24 07:21:04 51°19.055 2°51.939 0.9 11.3 355 13.3
2009-07-24 07:21:09 51°19.071 2°51.935 0.7 11.3 353 13.3
2009-07-24 07:21:14 51°19.086 2°51.933 1 11.3 355 13.1
2009-07-24 07:21:19 51°19.102 2°51.93 1.4 11.3 354 13.4
2009-07-24 07:21:24 51°19.117 2°51.929 1.5 11.2 355 13.3
2009-07-24 07:21:29 51°19.133 2°51.926 1.1 11.3 353 13.1
2009-07-24 07:21:34 51°19.149 2°51.924 1.3 11.2 354 13.1
2009-07-24 07:21:39 51°19.164 2°51.92 0.8 11.3 353 13.1
2009-07-24 07:21:44 51°19.18 2°51.918 1 11.4 354 13.9
2009-07-24 07:21:49 51°19.195 2°51.915 0.7 11.4 352 14
2009-07-24 07:21:54 51°19.211 2°51.912 0.1 11.3 354 13.9
2009-07-24 07:21:59 51°19.227 2°51.908 359.6 11.4 352 13.9
2009-07-24 07:22:04 51°19.242 2°51.905 359.6 11.4 352 14.1
2009-07-24 07:22:09 51°19.258 2°51.902 359.3 11.4 352 14.4
2009-07-24 07:22:14 51°19.274 2°51.899 359.9 11.3 353 14.1
2009-07-24 07:22:19 51°19.289 2°51.896 0.2 11.3 353 14.3
2009-07-24 07:22:24 51°19.305 2°51.893 0.8 11.3 354 14.3
2009-07-24 07:22:29 51°19.32 2°51.89 1 11.3 354 14.1
2009-07-24 07:22:34 51°19.336 2°51.887 1.6 11.4 354 14.4
2009-07-24 07:22:39 51°19.352 2°51.884 1.3 11.4 353 14.4
2009-07-24 07:22:44 51°19.368 2°51.881 0.8 11.4 352 14.3
2009-07-24 07:22:49 51°19.383 2°51.878 0.1 11.4 353 14.5
2009-07-24 07:22:54 51°19.399 2°51.875 359.4 11.4 352 14.5
2009-07-24 07:22:59 51°19.414 2°51.871 359.4 11.3 352 14.3
2009-07-24 07:23:04 51°19.43 2°51.867 359.3 11.4 351 14.2
2009-07-24 07:23:09 51°19.446 2°51.865 359.5 11.3 355 14.4
2009-07-24 07:23:14 51°19.461 2°51.861 359.6 11.4 351 14.5
2009-07-24 07:23:19 51°19.477 2°51.858 -999 11.3 353 14.3
2009-07-24 07:23:24 51°19.492 2°51.855 0.7 11.3 352 14.3
2009-07-24 07:23:29 51°19.508 2°51.851 0.1 11.4 353 14.4
2009-07-24 07:23:34 51°19.524 2°51.849 0.7 11.3 355 14.6
2009-07-24 07:23:39 51°19.539 2°51.846 0.9 11.4 352 14.2
2009-07-24 07:23:44 51°19.555 2°51.844 0.3 11.2 356 14.3
2009-07-24 07:23:49 51°19.57 2°51.84 0.9 11.4 352 14.5
2009-07-24 07:23:54 51°19.586 2°51.838 1.3 11.2 355 14.5
2009-07-24 07:23:59 51°19.601 2°51.834 0.9 11.2 352 14.4
2009-07-24 07:24:04 51°19.617 2°51.832 0.9 11.2 356 14.3
2009-07-24 07:24:09 51°19.632 2°51.829 1.2 11.3 352 14.2
2009-07-24 07:24:14 51°19.648 2°51.826 1 11.3 354 14.5
2009-07-24 07:24:19 51°19.664 2°51.823 0.9 11.3 354 14.7
2009-07-24 07:24:24 51°19.679 2°51.819 0.1 11.3 351 14.5
2009-07-24 07:24:29 51°19.695 2°51.816 359.6 11.3 353 14.5
2009-07-24 07:24:34 51°19.71 2°51.813 0.4 11.4 352 14.5
2009-07-24 07:24:39 51°19.726 2°51.81 0.8 11.3 353 14.5
2009-07-24 07:24:44 51°19.741 2°51.807 0.4 11.3 352 14.5
2009-07-24 07:24:49 51°19.757 2°51.804 0.1 11.3 353 14.4
2009-07-24 07:24:54 51°19.773 2°51.8 359.9 11.4 352 14.5
2009-07-24 07:24:59 51°19.788 2°51.797 0.1 11.4 354 14.7
2009-07-24 07:25:04 51°19.804 2°51.794 0.7 11.3 352 14.2
2009-07-24 07:25:09 51°19.819 2°51.791 0.6 11.3 355 14.5
2009-07-24 07:25:14 51°19.835 2°51.788 0.9 11.3 353 14.4
2009-07-24 07:25:19 51°19.85 2°51.785 0.8 11.4 353 14.1
2009-07-24 07:25:24 51°19.866 2°51.783 0.7 11.3 354 13.8
2009-07-24 07:25:29 51°19.882 2°51.779 0.8 11.3 353 13.7
2009-07-24 07:25:34 51°19.897 2°51.777 1.5 11.4 355 14
2009-07-24 07:25:39 51°19.913 2°51.774 1.5 11.3 352 14.2
2009-07-24 07:25:44 51°19.928 2°51.771 0.8 11.3 355 13.8
2009-07-24 07:25:49 51°19.944 2°51.768 0.8 11.3 353 14.1
2009-07-24 07:25:54 51°19.959 2°51.766 0.7 11.2 353 13.9
2009-07-24 07:25:59 51°19.975 2°51.762 0.4 11.2 353 13.7
2009-07-24 07:26:04 51°19.99 2°51.759 0.3 11.3 353 13.7
2009-07-24 07:26:09 51°20.006 2°51.756 0.8 11.3 352 13.8
2009-07-24 07:26:14 51°20.021 2°51.752 0.1 11.3 352 12.8
2009-07-24 07:26:19 51°20.037 2°51.749 0.5 11.2 353 11.8
2009-07-24 07:26:24 51°20.052 2°51.746 359.9 11.2 352 11.3
2009-07-24 07:26:29 51°20.068 2°51.742 0.1 11.2 351 11.7
2009-07-24 07:26:34 51°20.083 2°51.738 0.1 11.2 352 12
2009-07-24 07:26:39 51°20.099 2°51.735 0.3 11.2 352 12.1
2009-07-24 07:26:44 51°20.114 2°51.732 0.5 11.3 353 12.4
2009-07-24 07:26:49 51°20.13 2°51.729 0.9 11.3 353 12.4
2009-07-24 07:26:54 51°20.145 2°51.725 0.2 11.4 352 12.5
2009-07-24 07:26:59 51°20.161 2°51.721 359.7 11.4 351 12.2
2009-07-24 07:27:04 51°20.176 2°51.718 359.6 11.4 352 12.4
2009-07-24 07:27:09 51°20.192 2°51.714 359.6 11.4 351 12
2009-07-24 07:27:14 51°20.208 2°51.71 359 11.4 352 12.1
2009-07-24 07:27:19 51°20.223 2°51.706 359 11.4 351 11.8
2009-07-24 07:27:24 51°20.239 2°51.701 358.6 11.4 351 11.8
2009-07-24 07:27:29 51°20.255 2°51.698 358.9 11.4 351 11.7
2009-07-24 07:27:34 51°20.27 2°51.694 359.4 11.4 351 11.8
2009-07-24 07:27:39 51°20.286 2°51.69 359.1 11.4 353 11.8
2009-07-24 07:27:44 51°20.302 2°51.687 359.9 11.5 351 12.4
2009-07-24 07:27:49 51°20.317 2°51.683 -999 11.4 353 12.2
2009-07-24 07:27:54 51°20.333 2°51.68 0.1 11.4 352 12.3
2009-07-24 07:27:59 51°20.349 2°51.677 0.5 11.4 353 12.1
2009-07-24 07:28:04 51°20.364 2°51.674 0.6 11.4 354 12
2009-07-24 07:28:09 51°20.38 2°51.671 0.9 11.4 351 11.9
2009-07-24 07:28:14 51°20.396 2°51.668 0.6 11.4 354 12
2009-07-24 07:28:19 51°20.411 2°51.665 0.8 11.4 353 12.3
2009-07-24 07:28:24 51°20.427 2°51.662 0.9 11.4 353 12.2
2009-07-24 07:28:29 51°20.443 2°51.659 0.2 11.5 353 12.5
2009-07-24 07:28:34 51°20.458 2°51.656 1.3 11.5 353 12.3
2009-07-24 07:28:39 51°20.474 2°51.653 0.7 11.5 352 12.7
2009-07-24 07:28:44 51°20.49 2°51.649 0.1 11.4 353 12.8
2009-07-24 07:28:49 51°20.506 2°51.646 0.4 11.4 352 12.9
2009-07-24 07:28:54 51°20.521 2°51.642 0.2 11.4 353 13.3
2009-07-24 07:28:59 51°20.537 2°51.639 0.5 11.5 353 13.7
2009-07-24 07:29:04 51°20.553 2°51.637 1.1 11.4 353 13.7
2009-07-24 07:29:09 51°20.568 2°51.633 0.5 11.4 353 13.7
2009-07-24 07:29:14 51°20.584 2°51.63 0.2 11.5 351 14.1
2009-07-24 07:29:19 51°20.6 2°51.626 -999 11.5 352 13.8
2009-07-24 07:29:24 51°20.616 2°51.623 359.6 11.5 354 13.6
2009-07-24 07:29:29 51°20.631 2°51.62 0.4 11.5 352 13.3
2009-07-24 07:29:34 51°20.647 2°51.617 1.4 11.4 354 13.5
2009-07-24 07:29:39 51°20.663 2°51.614 0.8 11.4 354 13.9
2009-07-24 07:29:44 51°20.679 2°51.61 0.6 11.4 353 13.7
2009-07-24 07:29:49 51°20.694 2°51.607 0.8 11.5 353 13.8
2009-07-24 07:29:54 51°20.71 2°51.604 0.8 11.4 352 13.4
2009-07-24 07:29:59 51°20.726 2°51.6 359.9 11.4 351 13.3
2009-07-24 07:30:04 51°20.742 2°51.597 0.8 11.4 354 13.9
2009-07-24 07:30:09 51°20.757 2°51.594 1.2 11.4 353 13.9
2009-07-24 07:30:14 51°20.773 2°51.591 0.8 11.5 354 14.4
2009-07-24 07:30:19 51°20.788 2°51.589 1.5 11.5 354 14.8
2009-07-24 07:30:24 51°20.804 2°51.587 1.8 11.5 354 14.7
2009-07-24 07:30:29 51°20.82 2°51.583 2.2 11.5 353 14.7
2009-07-24 07:30:34 51°20.836 2°51.581 2.1 11.4 355 15.1
2009-07-24 07:30:39 51°20.852 2°51.578 1.8 11.4 355 15.4
2009-07-24 07:30:44 51°20.868 2°51.575 1.8 11.5 354 15.3
2009-07-24 07:30:49 51°20.884 2°51.573 1.8 11.4 354 15.4
2009-07-24 07:30:54 51°20.9 2°51.57 1.8 11.5 354 16
2009-07-24 07:30:59 51°20.915 2°51.567 1.7 11.4 354 15.7
2009-07-24 07:31:04 51°20.931 2°51.564 1.7 11.4 353 16.2
2009-07-24 07:31:09 51°20.947 2°51.562 1.7 11.4 354 16.4
2009-07-24 07:31:14 51°20.963 2°51.559 1.1 11.4 354 16.2
2009-07-24 07:31:19 51°20.978 2°51.556 1.5 11.4 352 16.4
2009-07-24 07:31:24 51°20.993 2°51.555 1.1 11.4 354 16.6
2009-07-24 07:31:29 51°21.009 2°51.551 0.6 11.4 354 16.5
2009-07-24 07:31:34 51°21.025 2°51.549 1.8 11.3 355 17.1
2009-07-24 07:31:39 51°21.04 2°51.546 1.5 11.4 353 17.4
2009-07-24 07:31:44 51°21.056 2°51.543 1.3 11.4 353 17.3
2009-07-24 07:31:49 51°21.072 2°51.54 0.9 11.4 354 17.9
2009-07-24 07:31:54 51°21.088 2°51.537 0.8 11.3 354 17.6
2009-07-24 07:31:59 51°21.103 2°51.534 1.9 11.3 354 17.7
2009-07-24 07:32:04 51°21.119 2°51.531 0.8 11.4 352 18.3
2009-07-24 07:32:09 51°21.135 2°51.529 0.8 11.3 355 18.4
2009-07-24 07:32:14 51°21.15 2°51.525 1.2 11.3 354 18.4
2009-07-24 07:32:19 51°21.166 2°51.524 2.1 11.4 355 18.8
2009-07-24 07:32:24 51°21.182 2°51.52 1.4 11.5 352 19.1
2009-07-24 07:32:29 51°21.197 2°51.518 1 11.4 354 19.1
2009-07-24 07:32:34 51°21.213 2°51.515 0.9 11.4 353 19.4
2009-07-24 07:32:39 51°21.228 2°51.512 1.2 11.4 353 19.4
2009-07-24 07:32:44 51°21.244 2°51.509 1.2 11.4 354 20.1
2009-07-24 07:32:49 51°21.26 2°51.506 1.3 11.5 354 20.1
2009-07-24 07:32:54 51°21.276 2°51.504 1.6 11.4 354 20.4
2009-07-24 07:32:59 51°21.291 2°51.501 2.1 11.4 355 20.4
2009-07-24 07:33:04 51°21.307 2°51.498 2.4 11.4 353 20.3
2009-07-24 07:33:09 51°21.323 2°51.497 2 11.4 355 20.4
2009-07-24 07:33:14 51°21.338 2°51.494 1.4 11.5 351 20.8
2009-07-24 07:33:19 51°21.354 2°51.491 0.1 11.4 355 21.2
2009-07-24 07:33:24 51°21.369 2°51.489 0.9 11.4 352 21.2
2009-07-24 07:33:29 51°21.385 2°51.485 0.1 11.4 352 21.7
2009-07-24 07:33:34 51°21.401 2°51.482 0.1 11.3 353 21.2
2009-07-24 07:33:39 51°21.417 2°51.478 0.5 11.4 352 21.5
2009-07-24 07:33:44 51°21.432 2°51.475 0.7 11.3 353 21.6
2009-07-24 07:33:49 51°21.448 2°51.471 0.6 11.3 353 21.6
2009-07-24 07:33:54 51°21.464 2°51.469 1.3 11.3 353 22
2009-07-24 07:33:59 51°21.479 2°51.465 0.6 11.3 353 21.9
2009-07-24 07:34:04 51°21.495 2°51.463 0.7 11.3 352 21.8
2009-07-24 07:34:09 51°21.511 2°51.459 0.6 11.3 354 21.9
2009-07-24 07:34:14 51°21.526 2°51.456 1.3 11.3 352 22.1
2009-07-24 07:34:19 51°21.542 2°51.453 0.9 11.3 353 22.2
2009-07-24 07:34:24 51°21.557 2°51.45 1.4 11.3 353 22.3
2009-07-24 07:34:29 51°21.573 2°51.448 1.6 11.3 354 22.3
2009-07-24 07:34:34 51°21.589 2°51.444 1.5 11.3 352 22.8
2009-07-24 07:34:39 51°21.604 2°51.442 0.9 11.3 354 22.7
2009-07-24 07:34:44 51°21.62 2°51.438 1.1 11.4 351 22.6
2009-07-24 07:34:49 51°21.635 2°51.435 0.4 11.3 354 22.4
2009-07-24 07:34:54 51°21.651 2°51.432 0.8 11.3 353 22.4
2009-07-24 07:34:59 51°21.666 2°51.429 1.1 11.3 353 22.3
2009-07-24 07:35:04 51°21.682 2°51.427 0.8 11.3 354 23
2009-07-24 07:35:09 51°21.697 2°51.423 1.1 11.2 352 22.7
2009-07-24 07:35:14 51°21.713 2°51.42 0.8 11.2 355 22.5
2009-07-24 07:35:19 51°21.728 2°51.418 1.5 11.2 353 23.1
2009-07-24 07:35:24 51°21.744 2°51.415 1.3 11.2 354 23.1
2009-07-24 07:35:29 51°21.759 2°51.413 2 11.2 355 22.6
2009-07-24 07:35:34 51°21.774 2°51.409 1.8 11.2 353 22.8
2009-07-24 07:35:39 51°21.79 2°51.407 1.7 11.2 354 22.9
2009-07-24 07:35:44 51°21.805 2°51.404 1.7 11.2 354 22.5
2009-07-24 07:35:49 51°21.821 2°51.401 2.2 11.2 354 22.6
2009-07-24 07:35:54 51°21.836 2°51.399 2.3 11.2 355 23
2009-07-24 07:35:59 51°21.852 2°51.396 2.2 11.3 353 22.7
2009-07-24 07:36:04 51°21.867 2°51.394 2.3 11.2 356 22.4
2009-07-24 07:36:09 51°21.883 2°51.392 3.8 11.2 354 22.5
2009-07-24 07:36:14 51°21.899 2°51.388 2 11.3 352 22.7
2009-07-24 07:36:19 51°21.914 2°51.386 2 11.2 356 22.7
2009-07-24 07:36:24 51°21.93 2°51.384 2.9 11.3 351 22.6
2009-07-24 07:36:29 51°21.945 2°51.38 1.7 11.3 355 22.7
2009-07-24 07:36:34 51°21.961 2°51.378 2.3 11.3 354 22.5
2009-07-24 07:36:39 51°21.976 2°51.375 2.4 11.3 353 22.6
2009-07-24 07:36:44 51°21.992 2°51.373 3.2 11.2 355 22.4
2009-07-24 07:36:49 51°22.008 2°51.37 2.3 11.3 354 22.4
2009-07-24 07:36:54 51°22.023 2°51.368 2.9 11.2 356 22.5
2009-07-24 07:36:59 51°22.039 2°51.366 3.1 11.3 355 22.4
2009-07-24 07:37:04 51°22.054 2°51.363 3.3 11.3 355 22
2009-07-24 07:37:09 51°22.07 2°51.362 3.3 11.1 356 21.7
2009-07-24 07:37:14 51°22.085 2°51.36 3.2 11.2 356 21.7
2009-07-24 07:37:19 51°22.101 2°51.357 3.5 11.3 354 21.7
2009-07-24 07:37:24 51°22.116 2°51.354 2.8 11.2 355 21.4
2009-07-24 07:37:29 51°22.132 2°51.353 2.6 11.2 357 21.4
2009-07-24 07:37:34 51°22.147 2°51.351 3.7 11.1 355 21.7
2009-07-24 07:37:39 51°22.163 2°51.348 2.2 11.1 355 21.4
2009-07-24 07:37:44 51°22.178 2°51.346 2.3 11.2 355 21.7
2009-07-24 07:37:49 51°22.194 2°51.343 2 11.2 353 21.7
2009-07-24 07:37:54 51°22.209 2°51.341 1.9 11.2 355 21.7
2009-07-24 07:37:59 51°22.225 2°51.338 2.4 11.3 354 21.7
2009-07-24 07:38:04 51°22.24 2°51.336 2.2 11.3 355 22
2009-07-24 07:38:09 51°22.256 2°51.333 2.6 11.4 353 22.4
2009-07-24 07:38:14 51°22.271 2°51.331 2.2 11.2 356 22.1
2009-07-24 07:38:19 51°22.287 2°51.329 2.9 11.3 356 21.8
2009-07-24 07:38:24 51°22.302 2°51.326 2.4 11.3 353 21.8
2009-07-24 07:38:29 51°22.318 2°51.324 2.2 11.2 356 21.9
2009-07-24 07:38:34 51°22.333 2°51.321 1.7 11.3 353 21.9
2009-07-24 07:38:39 51°22.349 2°51.318 2 11.3 355 21.7
2009-07-24 07:38:44 51°22.365 2°51.315 2.6 11.3 354 21.9
2009-07-24 07:38:49 51°22.38 2°51.314 2.6 11.3 354 21.6
2009-07-24 07:38:54 51°22.396 2°51.311 1.5 11.4 354 22
2009-07-24 07:38:59 51°22.412 2°51.308 1.5 11.4 353 21.9
2009-07-24 07:39:04 51°22.427 2°51.306 2.3 11.3 355 21.6
2009-07-24 07:39:09 51°22.443 2°51.303 2.1 11.4 352 21.5
2009-07-24 07:39:14 51°22.458 2°51.3 0.9 11.3 356 21.7
2009-07-24 07:39:19 51°22.474 2°51.298 1.6 11.3 354 21.3
2009-07-24 07:39:24 51°22.489 2°51.295 2.2 11.3 353 21.5
2009-07-24 07:39:29 51°22.505 2°51.293 1.5 11.2 356 21.2
2009-07-24 07:39:34 51°22.52 2°51.291 2.2 11.2 355 21.3
2009-07-24 07:39:39 51°22.536 2°51.288 2.5 11.3 354 21.5
2009-07-24 07:39:44 51°22.551 2°51.286 2 11.2 354 21.6
2009-07-24 07:39:49 51°22.567 2°51.283 2 11.2 354 21.3
2009-07-24 07:39:54 51°22.583 2°51.281 1.8 11.2 353 21.1
2009-07-24 07:39:59 51°22.598 2°51.278 1.5 11.3 353 21.5
2009-07-24 07:40:04 51°22.614 2°51.275 1.4 11.2 355 21.8
2009-07-24 07:40:09 51°22.629 2°51.271 1.1 11.2 353 21.2
2009-07-24 07:40:14 51°22.644 2°51.27 3 11.2 356 21.6
2009-07-24 07:40:19 51°22.66 2°51.265 0.9 11.3 350 21.3
2009-07-24 07:40:24 51°22.675 2°51.264 1.3 11.2 357 21.9
2009-07-24 07:40:29 51°22.691 2°51.261 2.3 11.2 354 21.8
2009-07-24 07:40:34 51°22.706 2°51.259 1.9 11.2 354 21.4
2009-07-24 07:40:39 51°22.721 2°51.256 1.9 11.2 352 21.3
2009-07-24 07:40:44 51°22.737 2°51.253 0.5 11.1 356 21.1
2009-07-24 07:40:49 51°22.752 2°51.252 2.9 11.2 354 21.2
2009-07-24 07:40:54 51°22.767 2°51.248 1.7 11.3 352 20.7
2009-07-24 07:40:59 51°22.783 2°51.247 1.4 11.1 358 21.2
2009-07-24 07:41:04 51°22.798 2°51.244 2.8 11.2 353 21.1
2009-07-24 07:41:09 51°22.814 2°51.242 2.3 11.2 355 21
2009-07-24 07:41:14 51°22.829 2°51.239 2.2 11.2 355 20.5
2009-07-24 07:41:19 51°22.845 2°51.237 2.5 11.2 354 20.6
2009-07-24 07:41:24 51°22.86 2°51.235 2.9 11.3 354 20.8
2009-07-24 07:41:29 51°22.876 2°51.232 1.7 11.2 355 20.7
2009-07-24 07:41:34 51°22.891 2°51.231 3 11.2 356 20.6
2009-07-24 07:41:39 51°22.906 2°51.228 3 11.3 354 20.3
2009-07-24 07:41:44 51°22.922 2°51.226 3 11.2 355 20.3
2009-07-24 07:41:49 51°22.937 2°51.224 2.6 11.2 354 20.1
2009-07-24 07:41:54 51°22.953 2°51.222 2.8 11.2 358 19.1
2009-07-24 07:41:59 51°22.968 2°51.219 3.1 11.3 353 18.9
2009-07-24 07:42:04 51°22.984 2°51.217 2.9 11.1 355 17.3
2009-07-24 07:42:09 51°22.999 2°51.215 2.1 11.2 355 18.9
2009-07-24 07:42:14 51°23.015 2°51.212 2.6 11.3 352 18.7
2009-07-24 07:42:19 51°23.03 2°51.21 2.1 11.1 356 18.5
2009-07-24 07:42:24 51°23.046 2°51.208 3.2 11.2 354 17.5
2009-07-24 07:42:29 51°23.061 2°51.207 2.6 11.2 357 16.5
2009-07-24 07:42:34 51°23.076 2°51.204 2.5 11.1 354 15.4
2009-07-24 07:42:39 51°23.092 2°51.203 4 11 357 12.3
2009-07-24 07:42:44 51°23.107 2°51.201 3 11.1 354 14
2009-07-24 07:42:49 51°23.122 2°51.198 2.3 11 356 14.4
2009-07-24 07:42:54 51°23.137 2°51.197 3.8 11 356 13.1
2009-07-24 07:42:59 51°23.153 2°51.195 2.7 11.1 355 13.6
2009-07-24 07:43:04 51°23.168 2°51.193 3.1 11 357 13.8
2009-07-24 07:43:09 51°23.183 2°51.191 3.4 11.2 354 13.8
2009-07-24 07:43:14 51°23.199 2°51.189 2.1 11.2 355 12.6
2009-07-24 07:43:19 51°23.214 2°51.187 2.9 11.2 356 11.3
2009-07-24 07:43:24 51°23.229 2°51.185 2.7 11.1 354 13.1
2009-07-24 07:43:29 51°23.244 2°51.184 2.7 11 356 13.3
2009-07-24 07:43:34 51°23.26 2°51.181 2.4 11.1 356 13.2
2009-07-24 07:43:39 51°23.275 2°51.18 3.5 11.1 357 13.2
2009-07-24 07:43:44 51°23.29 2°51.178 2.9 11.1 355 13.7
2009-07-24 07:43:49 51°23.306 2°51.177 3.4 11.1 357 14.1
2009-07-24 07:43:54 51°23.321 2°51.174 3 11.1 356 14
2009-07-24 07:43:59 51°23.337 2°51.173 3.2 11.1 356 13.7
2009-07-24 07:44:04 51°23.352 2°51.17 2.5 11.2 356 13.7
2009-07-24 07:44:09 51°23.367 2°51.169 2.5 11 355 12.8
2009-07-24 07:44:14 51°23.382 2°51.166 2.3 11.1 354 11.3
2009-07-24 07:44:19 51°23.398 2°51.164 2 11.1 354 13.1
2009-07-24 07:44:24 51°23.413 2°51.161 1.2 11 355 14
2009-07-24 07:44:29 51°23.428 2°51.159 2.4 11 355 14.4
2009-07-24 07:44:34 51°23.444 2°51.156 2.3 11.2 355 14.7
2009-07-24 07:44:39 51°23.459 2°51.154 2.1 11.2 354 14.7
2009-07-24 07:44:44 51°23.474 2°51.152 2.8 11.2 356 14
2009-07-24 07:44:49 51°23.49 2°51.15 2.4 11.2 354 14.5
2009-07-24 07:44:54 51°23.505 2°51.148 1.5 11 355 15.2
2009-07-24 07:44:59 51°23.52 2°51.147 2.1 11 357 15.4
2009-07-24 07:45:04 51°23.535 2°51.143 2.4 11.2 353 15.3
2009-07-24 07:45:09 51°23.551 2°51.142 2 11.2 357 15.2
2009-07-24 07:45:14 51°23.566 2°51.139 1.8 11.2 352 15.1
2009-07-24 07:45:19 51°23.582 2°51.137 1.5 11.2 356 15.8
2009-07-24 07:45:24 51°23.597 2°51.134 2.6 11.2 353 15.9
2009-07-24 07:45:29 51°23.612 2°51.132 1.7 11.2 356 16.2
2009-07-24 07:45:34 51°23.628 2°51.13 2.4 11.2 355 16.1
2009-07-24 07:45:39 51°23.643 2°51.128 2.6 11.3 355 16.2
2009-07-24 07:45:44 51°23.659 2°51.126 2.5 11.2 354 16.4
2009-07-24 07:45:49 51°23.675 2°51.123 2 11.3 355 16.2
2009-07-24 07:45:54 51°23.69 2°51.12 1.7 11.3 351 16.4
2009-07-24 07:45:59 51°23.705 2°51.117 0.4 11.3 353 16.2
2009-07-24 07:46:04 51°23.721 2°51.116 2 11.2 355 15.5
2009-07-24 07:46:09 51°23.736 2°51.113 1.4 11.2 353 15.8
2009-07-24 07:46:14 51°23.752 2°51.11 1 11.1 353 17.2
2009-07-24 07:46:19 51°23.767 2°51.108 1.2 11.1 355 18
2009-07-24 07:46:24 51°23.783 2°51.106 2.1 11.2 356 18.2
2009-07-24 07:46:29 51°23.798 2°51.102 2.6 11.2 352 18.1
2009-07-24 07:46:34 51°23.814 2°51.101 2 11.2 357 18.1
2009-07-24 07:46:39 51°23.829 2°51.099 2.7 11.3 356 18.3
2009-07-24 07:46:44 51°23.845 2°51.096 2.2 11.3 356 18.7
2009-07-24 07:46:49 51°23.86 2°51.095 3.1 11.3 356 18.7
2009-07-24 07:46:54 51°23.876 2°51.092 2.4 11.3 354 18.3
2009-07-24 07:46:59 51°23.891 2°51.09 2.1 11.3 354 17.8
2009-07-24 07:47:04 51°23.907 2°51.087 1.5 11.3 355 15.9
2009-07-24 07:47:09 51°23.922 2°51.085 2.1 11.3 354 16.6
2009-07-24 07:47:14 51°23.938 2°51.082 1.9 11.3 354 18.3
2009-07-24 07:47:19 51°23.954 2°51.081 1.8 11.3 356 19.2
2009-07-24 07:47:24 51°23.969 2°51.078 2.3 11.2 354 19.4
2009-07-24 07:47:29 51°23.985 2°51.076 2.2 11.2 354 19.7
2009-07-24 07:47:34 51°24 2°51.072 1 11.3 353 19.3
2009-07-24 07:47:39 51°24.016 2°51.071 2.1 11.3 357 19.1
2009-07-24 07:47:44 51°24.031 2°51.068 2.4 11.3 353 19.5
2009-07-24 07:47:49 51°24.047 2°51.066 1.6 11.2 356 19.5
2009-07-24 07:47:54 51°24.062 2°51.064 3.4 11.2 352 19.8
2009-07-24 07:47:59 51°24.078 2°51.06 0.1 11.2 352 19.5
2009-07-24 07:48:04 51°24.093 2°51.06 2.9 11 359 19.9
2009-07-24 07:48:09 51°24.108 2°51.056 2.8 11.3 349 19.9
2009-07-24 07:48:14 51°24.123 2°51.055 1.5 11 358 20.2
2009-07-24 07:48:19 51°24.138 2°51.051 1.1 11.1 353 20.4
2009-07-24 07:48:24 51°24.154 2°51.05 2 11.1 354 20.5
2009-07-24 07:48:29 51°24.169 2°51.048 1.5 11 357 20.3
2009-07-24 07:48:34 51°24.184 2°51.046 3.6 11.1 354 20.4
2009-07-24 07:48:39 51°24.2 2°51.042 2.2 11.2 353 20.4
2009-07-24 07:48:44 51°24.215 2°51.041 2.3 11.2 354 20.5
2009-07-24 07:48:49 51°24.231 2°51.039 1.5 11.1 355 20.8
2009-07-24 07:48:54 51°24.246 2°51.036 1.9 11.1 356 21.2
2009-07-24 07:48:59 51°24.261 2°51.034 2.8 11 355 20.8
2009-07-24 07:49:04 51°24.276 2°51.032 3.4 11 355 20.7
2009-07-24 07:49:09 51°24.292 2°51.03 2.6 11.2 355 20.6
2009-07-24 07:49:14 51°24.307 2°51.028 2.8 11.2 355 20.9
2009-07-24 07:49:19 51°24.322 2°51.025 1.8 11.1 355 20.9
2009-07-24 07:49:24 51°24.338 2°51.023 3.3 11.1 354 20.7
2009-07-24 07:49:29 51°24.353 2°51.021 3 11.1 358 20.6
2009-07-24 07:49:34 51°24.368 2°51.019 3.4 11.1 352 20.6
2009-07-24 07:49:39 51°24.384 2°51.016 2 11.1 354 20.4
2009-07-24 07:49:44 51°24.399 2°51.015 2.8 11.1 354 20.5
2009-07-24 07:49:49 51°24.414 2°51.012 2.1 11.1 355 20.7
2009-07-24 07:49:54 51°24.429 2°51.009 1.5 11 353 20.1
2009-07-24 07:49:59 51°24.445 2°51.008 2.4 11 357 20.4
2009-07-24 07:50:04 51°24.46 2°51.005 1.8 11.1 354 20.7
2009-07-24 07:50:09 51°24.475 2°51.003 2.6 10.9 354 20.4
2009-07-24 07:50:14 51°24.49 2°51 1.8 11 354 20.7
2009-07-24 07:50:19 51°24.506 2°50.998 2.3 11.1 355 20.9
2009-07-24 07:50:24 51°24.521 2°50.994 1.5 11.1 352 20.9
2009-07-24 07:50:29 51°24.536 2°50.993 1.5 11.1 358 21.4
2009-07-24 07:50:34 51°24.552 2°50.99 3 11 351 21.1
2009-07-24 07:50:39 51°24.567 2°50.988 2.3 11 356 20.8
2009-07-24 07:50:44 51°24.582 2°50.985 2.2 11 353 21.4
2009-07-24 07:50:49 51°24.597 2°50.983 2.2 11.1 356 21.1
2009-07-24 07:50:54 51°24.612 2°50.981 3.2 11.1 352 21.6
2009-07-24 07:50:59 51°24.628 2°50.979 1.8 11 357 21.7
2009-07-24 07:51:04 51°24.643 2°50.976 3 11.2 352 21.5
2009-07-24 07:51:09 51°24.658 2°50.975 3.5 11.1 356 21.6
2009-07-24 07:51:14 51°24.674 2°50.972 2.3 11.1 356 21.6
2009-07-24 07:51:19 51°24.689 2°50.97 3.1 11.1 354 21.3
2009-07-24 07:51:24 51°24.704 2°50.967 2.2 11.1 356 21.8
2009-07-24 07:51:29 51°24.72 2°50.965 2.9 11.1 355 21.6
2009-07-24 07:51:34 51°24.735 2°50.962 2.9 11.1 354 21.7
2009-07-24 07:51:39 51°24.75 2°50.96 2.4 11 355 21.5
2009-07-24 07:51:44 51°24.765 2°50.958 3.3 11 354 21.3
2009-07-24 07:51:49 51°24.78 2°50.956 2 11 355 21
2009-07-24 07:51:54 51°24.796 2°50.954 2.4 11 353 21.1
2009-07-24 07:51:59 51°24.811 2°50.951 1.7 11.1 354 21.3
2009-07-24 07:52:04 51°24.826 2°50.949 2.7 11.1 353 21.3
2009-07-24 07:52:10 51°24.844 2°50.945 1.7 11 354 21
2009-07-24 07:52:14 51°24.857 2°50.944 2 11 355 21.5
2009-07-24 07:52:19 51°24.872 2°50.941 2 11 354 21.6
2009-07-24 07:52:24 51°24.887 2°50.938 0.8 10.9 355 21.4
2009-07-24 07:52:29 51°24.902 2°50.937 2.7 10.9 355 21.2
2009-07-24 07:52:34 51°24.917 2°50.933 1.7 10.9 352 21.6
2009-07-24 07:52:39 51°24.932 2°50.931 2.3 10.9 356 21.3
2009-07-24 07:52:44 51°24.947 2°50.928 3.2 11 350 21.1
2009-07-24 07:52:49 51°24.962 2°50.926 0.8 10.9 356 21.7
2009-07-24 07:52:54 51°24.977 2°50.924 2.2 10.9 353 21.4
2009-07-24 07:52:59 51°24.992 2°50.921 2.4 10.8 354 21.5
2009-07-24 07:53:04 51°25.007 2°50.919 1.9 10.8 357 21.5
2009-07-24 07:53:09 51°25.022 2°50.916 3 10.9 351 21.3
2009-07-24 07:53:14 51°25.037 2°50.913 1.7 10.8 354 21.4
2009-07-24 07:53:19 51°25.052 2°50.91 1.2 10.8 353 21.5
2009-07-24 07:53:24 51°25.067 2°50.908 2.5 10.7 357 21.2
2009-07-24 07:53:29 51°25.082 2°50.906 3.6 10.9 352 21.6
2009-07-24 07:53:34 51°25.097 2°50.901 1.4 10.9 353 21.5
2009-07-24 07:53:39 51°25.112 2°50.901 3.1 10.9 357 21.5
2009-07-24 07:53:44 51°25.126 2°50.896 0.8 11 349 21.4
2009-07-24 07:53:49 51°25.141 2°50.894 0.8 10.8 356 21.6
2009-07-24 07:53:54 51°25.156 2°50.891 2.2 10.9 350 21.2
2009-07-24 07:53:59 51°25.171 2°50.888 0.9 10.9 354 21.6
2009-07-24 07:54:04 51°25.186 2°50.885 1.9 11 353 21.7
2009-07-24 07:54:09 51°25.201 2°50.881 1.6 11 352 21.4
2009-07-24 07:54:14 51°25.217 2°50.88 2.1 11 355 21.6
2009-07-24 07:54:19 51°25.232 2°50.876 1.5 11.1 352 21.8
2009-07-24 07:54:24 51°25.247 2°50.873 2 10.9 354 21.7
2009-07-24 07:54:29 51°25.262 2°50.87 2.2 10.9 354 21.5
2009-07-24 07:54:34 51°25.277 2°50.868 2.3 11 353 21.7
2009-07-24 07:54:39 51°25.292 2°50.865 2 11 353 21.8
2009-07-24 07:54:44 51°25.307 2°50.862 2.2 11 355 21.4
2009-07-24 07:54:49 51°25.322 2°50.859 2.5 11.1 352 21.7
2009-07-24 07:54:54 51°25.338 2°50.857 2.6 10.9 355 21.6
2009-07-24 07:54:59 51°25.353 2°50.854 2.7 11 353 21.5
2009-07-24 07:55:04 51°25.368 2°50.852 2 11 355 21.9
2009-07-24 07:55:09 51°25.383 2°50.849 2.3 11.1 353 22.1
2009-07-24 07:55:14 51°25.398 2°50.847 3 11.1 355 22.2
2009-07-24 07:55:19 51°25.413 2°50.844 2.6 11 354 22.1
2009-07-24 07:55:24 51°25.429 2°50.841 2.3 11 353 22
2009-07-24 07:55:29 51°25.444 2°50.84 2.9 10.9 356 22.1
2009-07-24 07:55:34 51°25.459 2°50.836 2.6 11 352 22.1
2009-07-24 07:55:39 51°25.474 2°50.834 2.3 10.9 354 22
2009-07-24 07:55:44 51°25.489 2°50.832 2.3 11 354 22.2
2009-07-24 07:55:49 51°25.504 2°50.827 1.4 11 352 22
2009-07-24 07:55:54 51°25.519 2°50.826 3 10.9 356 22
2009-07-24 07:55:59 51°25.534 2°50.822 2 11 351 21.9
2009-07-24 07:56:04 51°25.549 2°50.82 2.4 10.9 357 22.3
2009-07-24 07:56:09 51°25.564 2°50.819 3.8 10.8 354 22.5
2009-07-24 07:56:14 51°25.579 2°50.814 0.9 10.8 352 22.2
2009-07-24 07:56:19 51°25.594 2°50.814 3.1 10.8 357 22
2009-07-24 07:56:24 51°25.609 2°50.811 3 10.9 354 22.1
2009-07-24 07:56:29 51°25.624 2°50.808 2.4 10.9 351 22.1
2009-07-24 07:56:34 51°25.639 2°50.805 1.4 10.9 355 22.2
2009-07-24 07:56:39 51°25.654 2°50.802 2.9 10.8 353 22
2009-07-24 07:56:44 51°25.669 2°50.799 2.2 10.9 351 22.4
2009-07-24 07:56:49 51°25.684 2°50.796 1.6 10.8 355 22.2
2009-07-24 07:56:54 51°25.699 2°50.795 3.2 10.9 354 22.2
2009-07-24 07:56:59 51°25.714 2°50.79 1.7 10.9 350 22.3
2009-07-24 07:57:04 51°25.728 2°50.789 3.2 10.9 356 22.2
2009-07-24 07:57:09 51°25.744 2°50.785 2.2 11.1 350 22.2
2009-07-24 07:57:14 51°25.759 2°50.782 1 10.9 355 22.3
2009-07-24 07:57:19 51°25.774 2°50.779 2.3 11 353 22.2
2009-07-24 07:57:24 51°25.789 2°50.775 1.7 11 354 22.2
2009-07-24 07:57:29 51°25.804 2°50.773 2.5 11 352 22.3
2009-07-24 07:57:34 51°25.819 2°50.769 1.1 11 353 22.1
2009-07-24 07:57:39 51°25.834 2°50.767 2.1 10.9 355 22.4
2009-07-24 07:57:44 51°25.849 2°50.764 2.9 11 352 22
2009-07-24 07:57:49 51°25.865 2°50.761 1.5 10.9 355 22
2009-07-24 07:57:54 51°25.88 2°50.758 3.2 11 352 21.7
2009-07-24 07:57:59 51°25.895 2°50.756 2.5 11 355 22.2
2009-07-24 07:58:04 51°25.91 2°50.751 0.5 11 351 22.3
2009-07-24 07:58:09 51°25.925 2°50.75 2.4 11 355 22.4
2009-07-24 07:58:14 51°25.94 2°50.746 2.1 11.1 351 22.1
2009-07-24 07:58:19 51°25.955 2°50.744 2 11 356 22.4
2009-07-24 07:58:24 51°25.971 2°50.739 2 11 353 22.2
2009-07-24 07:58:29 51°25.986 2°50.739 3.7 11 355 22.1
2009-07-24 07:58:34 51°26.001 2°50.735 2.5 11.1 351 21.7
2009-07-24 07:58:39 51°26.016 2°50.733 2.7 11 356 22
2009-07-24 07:58:44 51°26.031 2°50.73 2.3 11 354 22.2
2009-07-24 07:58:50 51°26.049 2°50.727 2.3 11 354 22.7
2009-07-24 07:58:54 51°26.061 2°50.726 3.5 10.9 357 22.7
2009-07-24 07:58:59 51°26.077 2°50.721 2.2 11.1 351 22.5
2009-07-24 07:59:04 51°26.092 2°50.721 3.9 10.9 357 22.1
2009-07-24 07:59:09 51°26.107 2°50.716 2 11 351 22.2
2009-07-24 07:59:14 51°26.122 2°50.715 2.8 11 356 22.2
2009-07-24 07:59:19 51°26.137 2°50.711 1.7 11.1 350 22
2009-07-24 07:59:24 51°26.153 2°50.711 3 11 357 22.3
2009-07-24 07:59:29 51°26.168 2°50.707 1.9 10.9 351 22.1
2009-07-24 07:59:34 51°26.183 2°50.705 2.2 10.9 357 22
2009-07-24 07:59:39 51°26.198 2°50.703 3.6 11 354 22
2009-07-24 07:59:44 51°26.213 2°50.699 2 11.1 354 22.3
2009-07-24 07:59:49 51°26.228 2°50.698 2.3 11 356 22.3
2009-07-24 07:59:54 51°26.243 2°50.694 2.3 11.1 353 22.4
2009-07-24 07:59:59 51°26.259 2°50.692 2.9 11 356 22.3
2009-07-24 08:00:04 51°26.274 2°50.689 3 11.1 354 22.3
2009-07-24 08:00:09 51°26.289 2°50.687 2.8 11.1 355 22.3
2009-07-24 08:00:14 51°26.304 2°50.686 3.4 11 357 22.7
2009-07-24 08:00:19 51°26.319 2°50.682 1.7 11 350 22.4
2009-07-24 08:00:24 51°26.335 2°50.682 3.9 10.9 -999 22.3
2009-07-24 08:00:29 51°26.35 2°50.679 4 11 352 22.2
2009-07-24 08:00:34 51°26.365 2°50.677 2.8 11.1 354 22.2
2009-07-24 08:00:39 51°26.38 2°50.673 1.5 11 354 22.2
2009-07-24 08:00:44 51°26.395 2°50.672 3.1 11 355 22.3
2009-07-24 08:00:49 51°26.411 2°50.669 3.2 11.1 352 22.4
2009-07-24 08:00:54 51°26.426 2°50.666 1.5 11 354 22
2009-07-24 08:00:59 51°26.441 2°50.664 2.6 11.1 355 22.2
2009-07-24 08:01:04 51°26.456 2°50.661 2.3 11.1 354 22.4
2009-07-24 08:01:10 51°26.475 2°50.658 2.1 11.1 354 22.4
2009-07-24 08:01:14 51°26.487 2°50.656 1.9 11 353 22.5
2009-07-24 08:01:19 51°26.502 2°50.653 1.8 11 355 22.4
2009-07-24 08:01:24 51°26.517 2°50.651 1.8 11.1 352 22
2009-07-24 08:01:29 51°26.533 2°50.648 1.5 11.2 356 22
2009-07-24 08:01:34 51°26.548 2°50.646 2.8 11.1 352 22.3
2009-07-24 08:01:39 51°26.563 2°50.642 0.6 11.1 353 22.2
2009-07-24 08:01:44 51°26.579 2°50.641 1.5 11 355 20.4
2009-07-24 08:01:49 51°26.594 2°50.637 2.3 11 353 22.1
2009-07-24 08:01:54 51°26.609 2°50.635 1.5 11.1 355 22.3
2009-07-24 08:01:59 51°26.625 2°50.633 2.8 11.2 356 22.1
2009-07-24 08:02:04 51°26.64 2°50.629 0.9 11.1 351 21.8
2009-07-24 08:02:09 51°26.655 2°50.629 3.2 11 -999 22.1
2009-07-24 08:02:14 51°26.67 2°50.624 1.5 11.1 348 21.5
2009-07-24 08:02:19 51°26.685 2°50.623 1.4 11 359 20.3
2009-07-24 08:02:24 51°26.7 2°50.621 3.2 11.1 351 22.2
2009-07-24 08:02:29 51°26.715 2°50.617 0.9 11 355 22
2009-07-24 08:02:34 51°26.73 2°50.617 3 10.9 357 20.7
2009-07-24 08:02:39 51°26.746 2°50.613 2.6 11 352 18.1
2009-07-24 08:02:44 51°26.761 2°50.613 3.2 11 356 21.7
2009-07-24 08:02:50 51°26.779 2°50.609 2.3 11.1 354 22
2009-07-24 08:02:54 51°26.791 2°50.61 3.2 11 357 22.3
2009-07-24 08:02:59 51°26.806 2°50.608 2.3 10.9 357 22
2009-07-24 08:03:04 51°26.821 2°50.606 3 10.9 356 20.3
2009-07-24 08:03:10 51°26.84 2°50.604 3.7 10.9 355 18.4
2009-07-24 08:03:14 51°26.851 2°50.602 2.1 10.8 355 19.2
2009-07-24 08:03:19 51°26.866 2°50.602 3.7 10.8 359 20.8
2009-07-24 08:03:24 51°26.881 2°50.598 1.6 10.9 353 21
2009-07-24 08:03:30 51°26.899 2°50.597 2.9 10.8 357 19.8
2009-07-24 08:03:34 51°26.911 2°50.596 2.4 10.9 356 18.2
2009-07-24 08:03:39 51°26.926 2°50.594 1.3 10.8 356 18.9
2009-07-24 08:03:44 51°26.941 2°50.59 1.5 10.8 354 17.8
2009-07-24 08:03:49 51°26.956 2°50.589 2.9 10.8 355 15.7
2009-07-24 08:03:54 51°26.971 2°50.586 1.3 10.8 355 17.9
2009-07-24 08:03:59 51°26.986 2°50.584 1.9 10.8 354 17.9
2009-07-24 08:04:04 51°27 2°50.583 3.6 10.7 358 17.6
2009-07-24 08:04:09 51°27.015 2°50.58 2.3 10.9 352 16.7
2009-07-24 08:04:14 51°27.03 2°50.577 1.7 10.8 356 17.7
2009-07-24 08:04:19 51°27.045 2°50.575 1.9 10.8 355 18.3
2009-07-24 08:04:24 51°27.06 2°50.573 2.8 10.9 353 16.9
2009-07-24 08:04:29 51°27.075 2°50.571 2.3 10.7 358 17.9
2009-07-24 08:04:34 51°27.09 2°50.568 1.8 10.8 352 18.5
2009-07-24 08:04:39 51°27.105 2°50.568 2.9 10.8 358 18.7
2009-07-24 08:04:44 51°27.12 2°50.565 1.5 10.9 353 18.8
2009-07-24 08:04:49 51°27.135 2°50.562 0.7 10.9 355 18
2009-07-24 08:04:54 51°27.15 2°50.562 3 10.8 356 18.8
2009-07-24 08:04:59 51°27.165 2°50.558 1.3 10.8 353 19.2
2009-07-24 08:05:04 51°27.18 2°50.558 2.8 10.8 356 19.6
2009-07-24 08:05:10 51°27.198 2°50.555 2.5 10.9 355 19.9
2009-07-24 08:05:14 51°27.211 2°50.554 2.5 10.9 355 19.6
2009-07-24 08:05:19 51°27.225 2°50.552 2.7 10.9 357 19.8
2009-07-24 08:05:24 51°27.241 2°50.55 2.8 11 354 20.3
2009-07-24 08:05:30 51°27.259 2°50.548 2.3 10.9 357 19.8
2009-07-24 08:05:34 51°27.271 2°50.548 3 10.9 357 20.1
2009-07-24 08:05:39 51°27.286 2°50.544 2.3 11 353 19.2
2009-07-24 08:05:44 51°27.301 2°50.543 2.4 10.9 358 19.5
2009-07-24 08:05:49 51°27.316 2°50.541 3.1 11 354 19.9
2009-07-24 08:05:54 51°27.331 2°50.539 2.4 10.9 357 20.7
2009-07-24 08:05:59 51°27.347 2°50.538 3.2 10.9 358 20.2
2009-07-24 08:06:04 51°27.361 2°50.536 3.4 10.9 356 20.5
2009-07-24 08:06:09 51°27.377 2°50.534 2.6 11 354 20.4
2009-07-24 08:06:14 51°27.392 2°50.532 2.6 10.9 356 20.4
2009-07-24 08:06:19 51°27.407 2°50.53 2.6 10.9 354 20.8
2009-07-24 08:06:24 51°27.422 2°50.528 2.2 10.9 355 21.4
2009-07-24 08:06:29 51°27.437 2°50.526 2.3 10.9 356 21.3
2009-07-24 08:06:34 51°27.452 2°50.523 2.1 10.9 352 21.7
2009-07-24 08:06:39 51°27.467 2°50.522 2.2 10.8 359 21.9
2009-07-24 08:06:44 51°27.482 2°50.519 3.3 11 351 22.1
2009-07-24 08:06:49 51°27.497 2°50.517 1.6 10.8 359 22.1
2009-07-24 08:06:54 51°27.512 2°50.516 2.7 11 353 22
2009-07-24 08:06:59 51°27.528 2°50.513 2.1 11.1 353 22.2
2009-07-24 08:07:04 51°27.543 2°50.51 1.9 10.9 356 22.3
2009-07-24 08:07:09 51°27.557 2°50.509 3.5 10.8 354 22.8
2009-07-24 08:07:14 51°27.572 2°50.505 0.7 10.9 354 23